Terminal Aerodrome Forecast
Issued by NWS Twin Cities, MN

Home | Current Version | Previous Version | Text Only | Print | Product List | Glossary On
Versions: 1 2 3 4 5 6 7 8 9 10 11 12 13
000
FTUS43 KMPX 062320
TAFSTC
TAF
KSTC 062320Z 0700/0724 26007KT P6SM SCT250
     FM070400 22008KT P6SM SCT050 BKN090
     FM071000 29012KT P6SM BKN030
     FM071400 31013G22KT P6SM SCT025=

USA.gov is the U.S. government's official web portal to all federal, state and local government web resources and services.